sensor_id;sensor_type;location;lat;lon;timestamp;temperature;humidity
35246;DHT22;21379;50.962;6.960;2023-03-22T00:02:01;11.20;99.90
35246;DHT22;21379;50.962;6.960;2023-03-22T00:04:28;11.30;99.90
35246;DHT22;21379;50.962;6.960;2023-03-22T00:06:57;11.40;99.90
35246;DHT22;21379;50.962;6.960;2023-03-22T00:09:24;11.50;99.90
35246;DHT22;21379;50.962;6.960;2023-03-22T00:11:51;11.40;99.90
35246;DHT22;21379;50.962;6.960;2023-03-22T00:14:18;11.50;99.90
35246;DHT22;21379;50.962;6.960;2023-03-22T00:16:45;11.60;99.90
35246;DHT22;21379;50.962;6.960;2023-03-22T00:19:14;11.60;99.90
35246;DHT22;21379;50.962;6.960;2023-03-22T00:21:41;11.50;99.90
35246;DHT22;21379;50.962;6.960;2023-03-22T00:24:10;11.50;99.90
35246;DHT22;21379;50.962;6.960;2023-03-22T00:26:37;11.50;99.90
35246;DHT22;21379;50.962;6.960;2023-03-22T00:29:04;11.60;99.90
35246;DHT22;21379;50.962;6.960;2023-03-22T00:31:33;11.50;99.90
35246;DHT22;21379;50.962;6.960;2023-03-22T00:34:00;11.50;99.90
35246;DHT22;21379;50.962;6.960;2023-03-22T00:36:27;11.60;99.90
35246;DHT22;21379;50.962;6.960;2023-03-22T00:38:54;11.50;99.90
35246;DHT22;21379;50.962;6.960;2023-03-22T00:41:23;11.50;99.90
35246;DHT22;21379;50.962;6.960;2023-03-22T00:43:51;11.60;99.90
35246;DHT22;21379;50.962;6.960;2023-03-22T00:46:19;11.60;99.90
35246;DHT22;21379;50.962;6.960;2023-03-22T00:48:47;11.50;99.90
35246;DHT22;21379;50.962;6.960;2023-03-22T00:51:14;11.50;99.90
35246;DHT22;21379;50.962;6.960;2023-03-22T00:53:42;11.50;99.90
35246;DHT22;21379;50.962;6.960;2023-03-22T00:56:10;11.50;99.90
35246;DHT22;21379;50.962;6.960;2023-03-22T00:58:52;11.40;99.90
35246;DHT22;21379;50.962;6.960;2023-03-22T01:01:19;11.40;99.90
35246;DHT22;21379;50.962;6.960;2023-03-22T01:03:46;11.40;99.90
35246;DHT22;21379;50.962;6.960;2023-03-22T01:06:15;11.30;99.90
35246;DHT22;21379;50.962;6.960;2023-03-22T01:08:42;11.30;99.90
35246;DHT22;21379;50.962;6.960;2023-03-22T01:11:09;11.30;99.90
35246;DHT22;21379;50.962;6.960;2023-03-22T01:13:37;11.30;99.90
35246;DHT22;21379;50.962;6.960;2023-03-22T01:16:06;11.20;99.90
35246;DHT22;21379;50.962;6.960;2023-03-22T01:18:34;11.20;99.90
35246;DHT22;21379;50.962;6.960;2023-03-22T01:21:01;11.20;99.90
35246;DHT22;21379;50.962;6.960;2023-03-22T01:23:28;11.30;99.90
35246;DHT22;21379;50.962;6.960;2023-03-22T01:25:55;11.20;99.90
35246;DHT22;21379;50.962;6.960;2023-03-22T01:28:22;11.20;99.90
35246;DHT22;21379;50.962;6.960;2023-03-22T01:30:49;11.20;99.90
35246;DHT22;21379;50.962;6.960;2023-03-22T01:33:18;11.30;99.90
35246;DHT22;21379;50.962;6.960;2023-03-22T01:35:44;11.30;99.90
35246;DHT22;21379;50.962;6.960;2023-03-22T01:38:12;11.30;99.90
35246;DHT22;21379;50.962;6.960;2023-03-22T01:40:48;11.30;99.90
35246;DHT22;21379;50.962;6.960;2023-03-22T01:43:16;11.30;99.90
35246;DHT22;21379;50.962;6.960;2023-03-22T01:45:43;11.20;99.90
35246;DHT22;21379;50.962;6.960;2023-03-22T01:48:24;11.20;99.90
35246;DHT22;21379;50.962;6.960;2023-03-22T01:50:59;11.10;99.90
35246;DHT22;21379;50.962;6.960;2023-03-22T01:53:29;11.00;99.90
35246;DHT22;21379;50.962;6.960;2023-03-22T01:55:57;10.90;99.90
35246;DHT22;21379;50.962;6.960;2023-03-22T01:58:30;10.90;99.90
35246;DHT22;21379;50.962;6.960;2023-03-22T02:01:02;10.80;99.90
35246;DHT22;21379;50.962;6.960;2023-03-22T02:03:48;10.70;99.90
35246;DHT22;21379;50.962;6.960;2023-03-22T02:06:17;10.70;99.90
35246;DHT22;21379;50.962;6.960;2023-03-22T02:08:49;10.70;99.90
35246;DHT22;21379;50.962;6.960;2023-03-22T02:11:24;10.60;99.90
35246;DHT22;21379;50.962;6.960;2023-03-22T02:14:10;10.60;99.90
35246;DHT22;21379;50.962;6.960;2023-03-22T02:17:14;10.60;99.90
35246;DHT22;21379;50.962;6.960;2023-03-22T02:20:18;10.50;99.90
35246;DHT22;21379;50.962;6.960;2023-03-22T02:29:02;10.50;99.90
35246;DHT22;21379;50.962;6.960;2023-03-22T02:31:53;10.50;99.90
35246;DHT22;21379;50.962;6.960;2023-03-22T02:34:35;10.40;99.90
35246;DHT22;21379;50.962;6.960;2023-03-22T02:37:40;10.40;99.90
35246;DHT22;21379;50.962;6.960;2023-03-22T02:40:13;10.40;99.90
35246;DHT22;21379;50.962;6.960;2023-03-22T02:42:52;10.30;99.90
35246;DHT22;21379;50.962;6.960;2023-03-22T02:45:26;10.30;99.90
35246;DHT22;21379;50.962;6.960;2023-03-22T02:48:00;10.20;99.90
35246;DHT22;21379;50.962;6.960;2023-03-22T02:50:32;10.20;99.90
35246;DHT22;21379;50.962;6.960;2023-03-22T02:53:05;10.20;99.90
35246;DHT22;21379;50.962;6.960;2023-03-22T02:55:38;10.10;99.90
35246;DHT22;21379;50.962;6.960;2023-03-22T02:58:10;10.10;99.90
35246;DHT22;21379;50.962;6.960;2023-03-22T03:00:39;10.00;99.90
35246;DHT22;21379;50.962;6.960;2023-03-22T03:03:09;10.00;99.90
35246;DHT22;21379;50.962;6.960;2023-03-22T03:05:38;10.00;99.90
35246;DHT22;21379;50.962;6.960;2023-03-22T03:08:09;10.00;99.90
35246;DHT22;21379;50.962;6.960;2023-03-22T03:10:40;10.00;99.90
35246;DHT22;21379;50.962;6.960;2023-03-22T03:13:11;9.90;99.90
35246;DHT22;21379;50.962;6.960;2023-03-22T03:15:39;9.90;99.90
35246;DHT22;21379;50.962;6.960;2023-03-22T03:18:21;9.90;99.90
35246;DHT22;21379;50.962;6.960;2023-03-22T03:20:57;10.00;99.90
35246;DHT22;21379;50.962;6.960;2023-03-22T03:23:34;9.90;99.90
35246;DHT22;21379;50.962;6.960;2023-03-22T03:26:09;10.00;99.90
35246;DHT22;21379;50.962;6.960;2023-03-22T03:28:41;9.90;99.90
35246;DHT22;21379;50.962;6.960;2023-03-22T03:31:19;9.90;99.90
35246;DHT22;21379;50.962;6.960;2023-03-22T03:33:56;9.80;99.90
35246;DHT22;21379;50.962;6.960;2023-03-22T03:36:26;9.80;99.90
35246;DHT22;21379;50.962;6.960;2023-03-22T03:38:55;9.90;99.90
35246;DHT22;21379;50.962;6.960;2023-03-22T03:41:27;9.90;99.90
35246;DHT22;21379;50.962;6.960;2023-03-22T03:43:56;9.90;99.90
35246;DHT22;21379;50.962;6.960;2023-03-22T03:46:25;9.80;99.90
35246;DHT22;21379;50.962;6.960;2023-03-22T03:48:55;9.80;99.90
35246;DHT22;21379;50.962;6.960;2023-03-22T03:51:23;9.80;99.90
35246;DHT22;21379;50.962;6.960;2023-03-22T03:53:51;9.90;99.90
35246;DHT22;21379;50.962;6.960;2023-03-22T03:56:20;9.80;99.90
35246;DHT22;21379;50.962;6.960;2023-03-22T03:58:49;9.70;99.90
35246;DHT22;21379;50.962;6.960;2023-03-22T04:01:16;9.80;99.90
35246;DHT22;21379;50.962;6.960;2023-03-22T04:03:52;9.80;99.90
35246;DHT22;21379;50.962;6.960;2023-03-22T04:06:20;9.80;99.90
35246;DHT22;21379;50.962;6.960;2023-03-22T04:08:52;9.90;99.90
35246;DHT22;21379;50.962;6.960;2023-03-22T04:11:24;9.90;99.90
35246;DHT22;21379;50.962;6.960;2023-03-22T04:13:56;9.90;99.90
35246;DHT22;21379;50.962;6.960;2023-03-22T04:16:23;9.90;99.90
35246;DHT22;21379;50.962;6.960;2023-03-22T04:18:50;9.90;99.90
35246;DHT22;21379;50.962;6.960;2023-03-22T04:21:18;9.90;99.90
35246;DHT22;21379;50.962;6.960;2023-03-22T04:23:53;10.00;99.90
35246;DHT22;21379;50.962;6.960;2023-03-22T04:26:20;10.00;99.90
35246;DHT22;21379;50.962;6.960;2023-03-22T04:29:09;10.00;99.90
35246;DHT22;21379;50.962;6.960;2023-03-22T04:31:40;10.00;99.90
35246;DHT22;21379;50.962;6.960;2023-03-22T04:34:18;10.00;99.90
35246;DHT22;21379;50.962;6.960;2023-03-22T04:36:56;10.00;99.90
35246;DHT22;21379;50.962;6.960;2023-03-22T04:39:29;10.00;99.90
35246;DHT22;21379;50.962;6.960;2023-03-22T04:42:19;10.00;99.90
35246;DHT22;21379;50.962;6.960;2023-03-22T04:44:51;10.00;99.90
35246;DHT22;21379;50.962;6.960;2023-03-22T04:47:18;10.00;99.90
35246;DHT22;21379;50.962;6.960;2023-03-22T04:49:45;10.00;99.90
35246;DHT22;21379;50.962;6.960;2023-03-22T04:52:14;10.00;99.90
35246;DHT22;21379;50.962;6.960;2023-03-22T04:54:48;10.00;99.90
35246;DHT22;21379;50.962;6.960;2023-03-22T04:57:15;10.00;99.90
35246;DHT22;21379;50.962;6.960;2023-03-22T04:59:45;10.00;99.90
35246;DHT22;21379;50.962;6.960;2023-03-22T05:02:14;10.00;99.90
35246;DHT22;21379;50.962;6.960;2023-03-22T05:04:42;10.00;99.90
35246;DHT22;21379;50.962;6.960;2023-03-22T05:07:25;9.90;99.90
35246;DHT22;21379;50.962;6.960;2023-03-22T05:09:56;9.90;99.90
35246;DHT22;21379;50.962;6.960;2023-03-22T05:12:23;9.90;99.90
35246;DHT22;21379;50.962;6.960;2023-03-22T05:14:56;9.90;99.90
35246;DHT22;21379;50.962;6.960;2023-03-22T05:17:30;9.90;99.90
35246;DHT22;21379;50.962;6.960;2023-03-22T05:19:58;9.90;99.90
35246;DHT22;21379;50.962;6.960;2023-03-22T05:22:33;9.90;99.90
35246;DHT22;21379;50.962;6.960;2023-03-22T05:25:04;9.90;99.90
35246;DHT22;21379;50.962;6.960;2023-03-22T05:27:31;9.80;99.90
35246;DHT22;21379;50.962;6.960;2023-03-22T05:30:37;9.80;99.90
35246;DHT22;21379;50.962;6.960;2023-03-22T05:33:15;9.70;99.90
35246;DHT22;21379;50.962;6.960;2023-03-22T05:35:47;9.70;99.90
35246;DHT22;21379;50.962;6.960;2023-03-22T05:38:15;9.70;99.90
35246;DHT22;21379;50.962;6.960;2023-03-22T05:40:46;9.60;99.90
35246;DHT22;21379;50.962;6.960;2023-03-22T05:43:13;9.70;99.90
35246;DHT22;21379;50.962;6.960;2023-03-22T05:45:45;9.70;99.90
35246;DHT22;21379;50.962;6.960;2023-03-22T05:48:32;9.80;99.90
35246;DHT22;21379;50.962;6.960;2023-03-22T05:51:00;9.90;99.90
35246;DHT22;21379;50.962;6.960;2023-03-22T05:53:29;10.00;99.90
35246;DHT22;21379;50.962;6.960;2023-03-22T05:56:08;10.10;99.90
35246;DHT22;21379;50.962;6.960;2023-03-22T05:58:36;10.20;99.90
35246;DHT22;21379;50.962;6.960;2023-03-22T06:01:05;10.30;99.90
35246;DHT22;21379;50.962;6.960;2023-03-22T06:03:46;10.30;99.90
35246;DHT22;21379;50.962;6.960;2023-03-22T06:06:22;10.40;99.90
35246;DHT22;21379;50.962;6.960;2023-03-22T06:08:57;10.40;99.90
35246;DHT22;21379;50.962;6.960;2023-03-22T06:11:24;10.50;99.90
35246;DHT22;21379;50.962;6.960;2023-03-22T06:13:52;10.50;99.90
35246;DHT22;21379;50.962;6.960;2023-03-22T06:16:22;10.60;99.90
35246;DHT22;21379;50.962;6.960;2023-03-22T06:18:50;10.60;99.90
35246;DHT22;21379;50.962;6.960;2023-03-22T06:21:17;10.60;99.90
35246;DHT22;21379;50.962;6.960;2023-03-22T06:23:44;10.70;99.90
35246;DHT22;21379;50.962;6.960;2023-03-22T06:26:11;10.70;99.90
35246;DHT22;21379;50.962;6.960;2023-03-22T06:28:40;10.70;99.90
35246;DHT22;21379;50.962;6.960;2023-03-22T06:31:08;10.80;99.90
35246;DHT22;21379;50.962;6.960;2023-03-22T06:33:45;10.80;99.90
35246;DHT22;21379;50.962;6.960;2023-03-22T06:36:26;10.90;99.90
35246;DHT22;21379;50.962;6.960;2023-03-22T06:39:05;10.80;99.90
35246;DHT22;21379;50.962;6.960;2023-03-22T06:41:32;10.90;99.90
35246;DHT22;21379;50.962;6.960;2023-03-22T06:44:00;10.90;99.90
35246;DHT22;21379;50.962;6.960;2023-03-22T06:46:54;10.90;99.90
35246;DHT22;21379;50.962;6.960;2023-03-22T06:49:38;11.10;99.90
35246;DHT22;21379;50.962;6.960;2023-03-22T06:52:08;11.10;99.90
35246;DHT22;21379;50.962;6.960;2023-03-22T06:54:35;11.20;99.90
35246;DHT22;21379;50.962;6.960;2023-03-22T06:57:02;11.20;99.90
35246;DHT22;21379;50.962;6.960;2023-03-22T06:59:29;11.20;99.90
35246;DHT22;21379;50.962;6.960;2023-03-22T07:01:56;11.30;99.90
35246;DHT22;21379;50.962;6.960;2023-03-22T07:04:23;11.40;99.90
35246;DHT22;21379;50.962;6.960;2023-03-22T07:06:52;11.50;99.90
35246;DHT22;21379;50.962;6.960;2023-03-22T07:09:21;11.70;99.90
35246;DHT22;21379;50.962;6.960;2023-03-22T07:11:49;11.70;99.90
35246;DHT22;21379;50.962;6.960;2023-03-22T07:14:16;11.70;99.90
35246;DHT22;21379;50.962;6.960;2023-03-22T07:17:06;11.60;99.90
35246;DHT22;21379;50.962;6.960;2023-03-22T07:19:33;11.60;99.90
35246;DHT22;21379;50.962;6.960;2023-03-22T07:22:05;11.60;99.90
35246;DHT22;21379;50.962;6.960;2023-03-22T07:24:35;11.90;99.90
35246;DHT22;21379;50.962;6.960;2023-03-22T07:27:02;12.10;99.90
35246;DHT22;21379;50.962;6.960;2023-03-22T07:29:30;12.60;99.90
35246;DHT22;21379;50.962;6.960;2023-03-22T07:31:58;12.80;99.90
35246;DHT22;21379;50.962;6.960;2023-03-22T07:34:33;13.20;99.90
35246;DHT22;21379;50.962;6.960;2023-03-22T07:37:03;13.30;99.90
35246;DHT22;21379;50.962;6.960;2023-03-22T07:39:30;13.00;99.90
35246;DHT22;21379;50.962;6.960;2023-03-22T07:41:59;13.00;99.90
35246;DHT22;21379;50.962;6.960;2023-03-22T07:44:41;13.30;99.90
35246;DHT22;21379;50.962;6.960;2023-03-22T07:47:14;13.50;99.90
35246;DHT22;21379;50.962;6.960;2023-03-22T07:50:10;13.90;99.90
35246;DHT22;21379;50.962;6.960;2023-03-22T07:52:38;13.70;99.90
35246;DHT22;21379;50.962;6.960;2023-03-22T07:55:07;13.70;99.90
35246;DHT22;21379;50.962;6.960;2023-03-22T07:57:36;13.60;99.90
35246;DHT22;21379;50.962;6.960;2023-03-22T08:00:05;13.30;99.90
35246;DHT22;21379;50.962;6.960;2023-03-22T08:02:42;13.20;99.90
35246;DHT22;21379;50.962;6.960;2023-03-22T08:05:19;13.00;99.90
35246;DHT22;21379;50.962;6.960;2023-03-22T08:07:54;12.90;99.90
35246;DHT22;21379;50.962;6.960;2023-03-22T08:10:21;13.00;99.90
35246;DHT22;21379;50.962;6.960;2023-03-22T08:12:49;13.10;99.90
35246;DHT22;21379;50.962;6.960;2023-03-22T08:15:21;13.50;99.90
35246;DHT22;21379;50.962;6.960;2023-03-22T08:17:48;13.70;99.90
35246;DHT22;21379;50.962;6.960;2023-03-22T08:20:24;14.10;99.90
35246;DHT22;21379;50.962;6.960;2023-03-22T08:22:53;14.30;99.90
35246;DHT22;21379;50.962;6.960;2023-03-22T08:25:26;14.50;99.90
35246;DHT22;21379;50.962;6.960;2023-03-22T08:28:03;14.70;99.90
35246;DHT22;21379;50.962;6.960;2023-03-22T08:30:30;14.90;99.90
35246;DHT22;21379;50.962;6.960;2023-03-22T08:32:57;14.60;99.90
35246;DHT22;21379;50.962;6.960;2023-03-22T08:35:25;14.50;99.90
35246;DHT22;21379;50.962;6.960;2023-03-22T08:37:53;14.60;99.90
35246;DHT22;21379;50.962;6.960;2023-03-22T08:40:21;14.70;99.90
35246;DHT22;21379;50.962;6.960;2023-03-22T08:42:52;14.40;99.90
35246;DHT22;21379;50.962;6.960;2023-03-22T08:45:21;14.30;99.90
35246;DHT22;21379;50.962;6.960;2023-03-22T08:47:58;14.40;99.90
35246;DHT22;21379;50.962;6.960;2023-03-22T08:50:26;14.60;99.90
35246;DHT22;21379;50.962;6.960;2023-03-22T08:53:04;14.70;99.90
35246;DHT22;21379;50.962;6.960;2023-03-22T08:55:33;14.60;99.90
35246;DHT22;21379;50.962;6.960;2023-03-22T08:58:10;14.80;99.90
35246;DHT22;21379;50.962;6.960;2023-03-22T09:01:11;14.70;99.90
35246;DHT22;21379;50.962;6.960;2023-03-22T09:03:44;14.40;99.90
35246;DHT22;21379;50.962;6.960;2023-03-22T09:06:11;14.40;99.90
35246;DHT22;21379;50.962;6.960;2023-03-22T09:08:40;14.30;99.90
35246;DHT22;21379;50.962;6.960;2023-03-22T09:11:12;14.40;99.90
35246;DHT22;21379;50.962;6.960;2023-03-22T09:13:41;14.20;99.90
35246;DHT22;21379;50.962;6.960;2023-03-22T09:16:08;14.00;99.90
35246;DHT22;21379;50.962;6.960;2023-03-22T09:18:38;13.90;99.90
35246;DHT22;21379;50.962;6.960;2023-03-22T09:21:10;13.90;99.90
35246;DHT22;21379;50.962;6.960;2023-03-22T09:24:02;14.30;99.90
35246;DHT22;21379;50.962;6.960;2023-03-22T09:26:39;14.70;99.90
35246;DHT22;21379;50.962;6.960;2023-03-22T09:29:06;15.00;99.90
35246;DHT22;21379;50.962;6.960;2023-03-22T09:31:33;14.80;99.90
35246;DHT22;21379;50.962;6.960;2023-03-22T09:34:14;14.60;99.90
35246;DHT22;21379;50.962;6.960;2023-03-22T09:36:41;15.40;99.90
35246;DHT22;21379;50.962;6.960;2023-03-22T09:39:08;15.80;99.90
35246;DHT22;21379;50.962;6.960;2023-03-22T09:41:38;16.00;99.90
35246;DHT22;21379;50.962;6.960;2023-03-22T09:44:12;15.90;99.90
35246;DHT22;21379;50.962;6.960;2023-03-22T09:46:42;15.90;99.90
35246;DHT22;21379;50.962;6.960;2023-03-22T09:49:15;15.60;99.90
35246;DHT22;21379;50.962;6.960;2023-03-22T09:51:44;15.00;99.90
35246;DHT22;21379;50.962;6.960;2023-03-22T09:54:14;14.90;99.90
35246;DHT22;21379;50.962;6.960;2023-03-22T09:56:45;14.60;99.90
35246;DHT22;21379;50.962;6.960;2023-03-22T09:59:16;15.10;99.90
35246;DHT22;21379;50.962;6.960;2023-03-22T10:01:50;15.20;99.90
35246;DHT22;21379;50.962;6.960;2023-03-22T10:04:42;14.90;99.90
35246;DHT22;21379;50.962;6.960;2023-03-22T10:07:16;14.90;99.90
35246;DHT22;21379;50.962;6.960;2023-03-22T10:09:49;15.10;99.90
35246;DHT22;21379;50.962;6.960;2023-03-22T10:12:25;15.30;99.90
35246;DHT22;21379;50.962;6.960;2023-03-22T10:15:01;15.30;99.90
35246;DHT22;21379;50.962;6.960;2023-03-22T10:17:30;15.40;99.90
35246;DHT22;21379;50.962;6.960;2023-03-22T10:20:02;15.70;99.90
35246;DHT22;21379;50.962;6.960;2023-03-22T10:22:35;16.30;99.90
35246;DHT22;21379;50.962;6.960;2023-03-22T10:25:06;16.30;99.90
35246;DHT22;21379;50.962;6.960;2023-03-22T10:27:35;16.70;99.90
35246;DHT22;21379;50.962;6.960;2023-03-22T10:30:07;16.40;99.90
35246;DHT22;21379;50.962;6.960;2023-03-22T10:32:40;15.90;99.90
35246;DHT22;21379;50.962;6.960;2023-03-22T10:35:13;15.40;99.90
35246;DHT22;21379;50.962;6.960;2023-03-22T10:37:42;15.70;99.90
35246;DHT22;21379;50.962;6.960;2023-03-22T10:40:16;16.10;99.90
35246;DHT22;21379;50.962;6.960;2023-03-22T10:42:50;16.30;99.90
35246;DHT22;21379;50.962;6.960;2023-03-22T10:45:19;16.30;99.90
35246;DHT22;21379;50.962;6.960;2023-03-22T10:47:52;15.80;99.90
35246;DHT22;21379;50.962;6.960;2023-03-22T10:50:26;15.30;99.90
35246;DHT22;21379;50.962;6.960;2023-03-22T10:52:58;14.90;99.90
35246;DHT22;21379;50.962;6.960;2023-03-22T10:55:26;14.90;99.90
35246;DHT22;21379;50.962;6.960;2023-03-22T10:57:58;14.60;99.90
35246;DHT22;21379;50.962;6.960;2023-03-22T11:00:31;14.60;99.90
35246;DHT22;21379;50.962;6.960;2023-03-22T11:02:59;14.50;99.90
35246;DHT22;21379;50.962;6.960;2023-03-22T11:05:28;14.40;99.90
35246;DHT22;21379;50.962;6.960;2023-03-22T11:07:56;14.50;99.90
35246;DHT22;21379;50.962;6.960;2023-03-22T11:10:28;14.50;99.90
35246;DHT22;21379;50.962;6.960;2023-03-22T11:13:12;14.40;99.90
35246;DHT22;21379;50.962;6.960;2023-03-22T11:15:41;14.30;99.90
35246;DHT22;21379;50.962;6.960;2023-03-22T11:18:16;14.30;99.90
35246;DHT22;21379;50.962;6.960;2023-03-22T11:20:53;14.20;99.90
35246;DHT22;21379;50.962;6.960;2023-03-22T11:23:21;14.40;99.90
35246;DHT22;21379;50.962;6.960;2023-03-22T11:25:51;14.50;99.90
35246;DHT22;21379;50.962;6.960;2023-03-22T11:28:26;14.50;99.90
35246;DHT22;21379;50.962;6.960;2023-03-22T11:30:58;14.60;99.90
35246;DHT22;21379;50.962;6.960;2023-03-22T11:33:25;14.70;99.90
35246;DHT22;21379;50.962;6.960;2023-03-22T11:35:56;14.60;99.90
35246;DHT22;21379;50.962;6.960;2023-03-22T11:38:25;14.70;99.90
35246;DHT22;21379;50.962;6.960;2023-03-22T11:40:55;14.80;99.90
35246;DHT22;21379;50.962;6.960;2023-03-22T11:43:25;14.80;99.90
35246;DHT22;21379;50.962;6.960;2023-03-22T11:45:55;14.90;99.90
35246;DHT22;21379;50.962;6.960;2023-03-22T11:48:25;14.80;99.90
35246;DHT22;21379;50.962;6.960;2023-03-22T11:50:58;14.70;99.90
35246;DHT22;21379;50.962;6.960;2023-03-22T11:53:32;14.60;99.90
35246;DHT22;21379;50.962;6.960;2023-03-22T11:56:02;14.40;99.90
35246;DHT22;21379;50.962;6.960;2023-03-22T11:58:49;14.40;99.90
35246;DHT22;21379;50.962;6.960;2023-03-22T12:01:26;14.40;99.90
35246;DHT22;21379;50.962;6.960;2023-03-22T12:03:57;14.20;99.90
35246;DHT22;21379;50.962;6.960;2023-03-22T12:06:28;14.10;99.90
35246;DHT22;21379;50.962;6.960;2023-03-22T12:09:00;14.10;99.90
35246;DHT22;21379;50.962;6.960;2023-03-22T12:11:33;14.10;99.90
35246;DHT22;21379;50.962;6.960;2023-03-22T12:14:04;14.10;99.90
35246;DHT22;21379;50.962;6.960;2023-03-22T12:16:40;14.00;99.90
35246;DHT22;21379;50.962;6.960;2023-03-22T12:19:16;14.10;99.90
35246;DHT22;21379;50.962;6.960;2023-03-22T12:21:48;14.10;99.90
35246;DHT22;21379;50.962;6.960;2023-03-22T12:24:23;14.00;99.90
35246;DHT22;21379;50.962;6.960;2023-03-22T12:26:52;14.00;99.90
35246;DHT22;21379;50.962;6.960;2023-03-22T12:29:21;14.00;99.90
35246;DHT22;21379;50.962;6.960;2023-03-22T12:31:55;14.00;99.90
35246;DHT22;21379;50.962;6.960;2023-03-22T12:34:31;13.90;99.90
35246;DHT22;21379;50.962;6.960;2023-03-22T12:37:05;13.80;99.90
35246;DHT22;21379;50.962;6.960;2023-03-22T12:39:36;13.90;99.90
35246;DHT22;21379;50.962;6.960;2023-03-22T12:42:12;13.90;99.90
35246;DHT22;21379;50.962;6.960;2023-03-22T12:44:43;13.90;99.90
35246;DHT22;21379;50.962;6.960;2023-03-22T12:47:15;13.80;99.90
35246;DHT22;21379;50.962;6.960;2023-03-22T12:49:50;13.90;99.90
35246;DHT22;21379;50.962;6.960;2023-03-22T12:52:20;13.90;99.90
35246;DHT22;21379;50.962;6.960;2023-03-22T12:54:50;13.90;99.90
35246;DHT22;21379;50.962;6.960;2023-03-22T12:57:18;13.90;99.90
35246;DHT22;21379;50.962;6.960;2023-03-22T12:59:48;13.80;99.90
35246;DHT22;21379;50.962;6.960;2023-03-22T13:02:19;13.80;99.90
35246;DHT22;21379;50.962;6.960;2023-03-22T13:04:52;13.80;99.90
35246;DHT22;21379;50.962;6.960;2023-03-22T13:07:37;13.80;99.90
35246;DHT22;21379;50.962;6.960;2023-03-22T13:10:37;13.80;99.90
35246;DHT22;21379;50.962;6.960;2023-03-22T13:13:13;13.80;99.90
35246;DHT22;21379;50.962;6.960;2023-03-22T13:15:55;13.80;99.90
35246;DHT22;21379;50.962;6.960;2023-03-22T13:18:28;13.90;99.90
35246;DHT22;21379;50.962;6.960;2023-03-22T13:21:13;13.80;99.90
35246;DHT22;21379;50.962;6.960;2023-03-22T13:23:56;13.80;99.90
35246;DHT22;21379;50.962;6.960;2023-03-22T13:26:32;13.80;99.90
35246;DHT22;21379;50.962;6.960;2023-03-22T13:29:08;14.00;99.90
35246;DHT22;21379;50.962;6.960;2023-03-22T13:31:40;14.10;99.90
35246;DHT22;21379;50.962;6.960;2023-03-22T13:34:17;14.10;99.90
35246;DHT22;21379;50.962;6.960;2023-03-22T13:36:52;14.20;99.90
35246;DHT22;21379;50.962;6.960;2023-03-22T13:39:22;14.10;99.90
35246;DHT22;21379;50.962;6.960;2023-03-22T13:42:17;14.20;99.90
35246;DHT22;21379;50.962;6.960;2023-03-22T13:44:52;14.20;99.90
35246;DHT22;21379;50.962;6.960;2023-03-22T13:47:34;14.30;99.90
35246;DHT22;21379;50.962;6.960;2023-03-22T13:50:13;14.30;99.90
35246;DHT22;21379;50.962;6.960;2023-03-22T13:52:49;14.30;99.90
35246;DHT22;21379;50.962;6.960;2023-03-22T13:55:38;14.30;99.90
35246;DHT22;21379;50.962;6.960;2023-03-22T13:58:09;14.30;99.90
35246;DHT22;21379;50.962;6.960;2023-03-22T14:00:50;14.30;99.90
35246;DHT22;21379;50.962;6.960;2023-03-22T14:03:27;14.30;99.90
35246;DHT22;21379;50.962;6.960;2023-03-22T14:06:02;14.30;99.90
35246;DHT22;21379;50.962;6.960;2023-03-22T14:08:31;14.30;99.90
35246;DHT22;21379;50.962;6.960;2023-03-22T14:11:08;14.30;99.90
35246;DHT22;21379;50.962;6.960;2023-03-22T14:13:41;14.40;99.90
35246;DHT22;21379;50.962;6.960;2023-03-22T14:16:14;14.40;99.90
35246;DHT22;21379;50.962;6.960;2023-03-22T14:18:45;14.30;99.90
35246;DHT22;21379;50.962;6.960;2023-03-22T14:21:17;14.30;99.90
35246;DHT22;21379;50.962;6.960;2023-03-22T14:23:46;14.10;99.90
35246;DHT22;21379;50.962;6.960;2023-03-22T14:26:17;14.10;99.90
35246;DHT22;21379;50.962;6.960;2023-03-22T14:28:45;14.10;99.90
35246;DHT22;21379;50.962;6.960;2023-03-22T14:31:16;14.20;99.90
35246;DHT22;21379;50.962;6.960;2023-03-22T14:33:45;14.10;99.90
35246;DHT22;21379;50.962;6.960;2023-03-22T14:36:13;14.10;99.90
35246;DHT22;21379;50.962;6.960;2023-03-22T14:38:43;14.10;99.90
35246;DHT22;21379;50.962;6.960;2023-03-22T14:41:13;14.10;99.90
35246;DHT22;21379;50.962;6.960;2023-03-22T14:43:43;14.10;99.90
35246;DHT22;21379;50.962;6.960;2023-03-22T14:46:16;14.10;99.90
35246;DHT22;21379;50.962;6.960;2023-03-22T14:48:48;14.20;99.90
35246;DHT22;21379;50.962;6.960;2023-03-22T14:51:20;14.20;99.90
35246;DHT22;21379;50.962;6.960;2023-03-22T14:53:48;14.20;99.90
35246;DHT22;21379;50.962;6.960;2023-03-22T14:56:18;14.20;99.90
35246;DHT22;21379;50.962;6.960;2023-03-22T14:58:50;14.20;99.90
35246;DHT22;21379;50.962;6.960;2023-03-22T15:01:22;14.10;99.90
35246;DHT22;21379;50.962;6.960;2023-03-22T15:03:54;14.20;99.90
35246;DHT22;21379;50.962;6.960;2023-03-22T15:06:23;14.10;99.90
35246;DHT22;21379;50.962;6.960;2023-03-22T15:08:49;14.20;99.90
35246;DHT22;21379;50.962;6.960;2023-03-22T15:11:17;14.10;99.90
35246;DHT22;21379;50.962;6.960;2023-03-22T15:13:47;14.20;99.90
35246;DHT22;21379;50.962;6.960;2023-03-22T15:16:18;14.20;99.90
35246;DHT22;21379;50.962;6.960;2023-03-22T15:18:48;14.20;99.90
35246;DHT22;21379;50.962;6.960;2023-03-22T15:21:16;14.20;99.90
35246;DHT22;21379;50.962;6.960;2023-03-22T15:23:48;14.20;99.90
35246;DHT22;21379;50.962;6.960;2023-03-22T15:26:18;14.30;99.90
35246;DHT22;21379;50.962;6.960;2023-03-22T15:28:54;14.30;99.90
35246;DHT22;21379;50.962;6.960;2023-03-22T15:31:24;14.20;99.90
35246;DHT22;21379;50.962;6.960;2023-03-22T15:33:53;14.20;99.90
35246;DHT22;21379;50.962;6.960;2023-03-22T15:36:21;14.20;99.90
35246;DHT22;21379;50.962;6.960;2023-03-22T15:38:49;14.10;99.90
35246;DHT22;21379;50.962;6.960;2023-03-22T15:41:25;14.10;99.90
35246;DHT22;21379;50.962;6.960;2023-03-22T15:44:01;14.00;99.90
35246;DHT22;21379;50.962;6.960;2023-03-22T15:46:30;14.00;99.90
35246;DHT22;21379;50.962;6.960;2023-03-22T15:49:20;14.00;99.90
35246;DHT22;21379;50.962;6.960;2023-03-22T15:51:47;14.00;99.90
35246;DHT22;21379;50.962;6.960;2023-03-22T15:54:21;14.10;99.90
35246;DHT22;21379;50.962;6.960;2023-03-22T15:56:49;14.10;99.90
35246;DHT22;21379;50.962;6.960;2023-03-22T15:59:26;14.10;99.90
35246;DHT22;21379;50.962;6.960;2023-03-22T16:01:55;14.10;99.90
35246;DHT22;21379;50.962;6.960;2023-03-22T16:04:24;14.10;99.90
35246;DHT22;21379;50.962;6.960;2023-03-22T16:06:51;14.20;99.90
35246;DHT22;21379;50.962;6.960;2023-03-22T16:09:18;14.20;99.90
35246;DHT22;21379;50.962;6.960;2023-03-22T16:11:45;14.20;99.90